sensor_id;sensor_type;location;lat;lon;timestamp;P1;durP1;ratioP1;P2;durP2;ratioP2
71572;SDS011;59408;51.032;9.410;2022-07-29T00:02:25;6.93;;;2.00;;
71572;SDS011;59408;51.032;9.410;2022-07-29T00:04:51;5.03;;;2.20;;
71572;SDS011;59408;51.032;9.410;2022-07-29T00:07:18;6.57;;;1.77;;
71572;SDS011;59408;51.032;9.410;2022-07-29T00:09:45;5.93;;;1.60;;
71572;SDS011;59408;51.032;9.410;2022-07-29T00:12:17;7.32;;;2.08;;
71572;SDS011;59408;51.032;9.410;2022-07-29T00:14:52;6.13;;;2.20;;
71572;SDS011;59408;51.032;9.410;2022-07-29T00:17:20;7.55;;;1.73;;
71572;SDS011;59408;51.032;9.410;2022-07-29T00:19:47;6.57;;;1.73;;
71572;SDS011;59408;51.032;9.410;2022-07-29T00:22:14;5.87;;;1.73;;
71572;SDS011;59408;51.032;9.410;2022-07-29T00:24:40;4.80;;;1.80;;
71572;SDS011;59408;51.032;9.410;2022-07-29T00:27:07;8.27;;;2.10;;
71572;SDS011;59408;51.032;9.410;2022-07-29T00:29:33;7.20;;;2.03;;
71572;SDS011;59408;51.032;9.410;2022-07-29T00:32:01;7.70;;;2.08;;
71572;SDS011;59408;51.032;9.410;2022-07-29T00:34:29;7.38;;;1.75;;
71572;SDS011;59408;51.032;9.410;2022-07-29T00:36:55;5.55;;;1.60;;
71572;SDS011;59408;51.032;9.410;2022-07-29T00:39:22;5.70;;;1.60;;
71572;SDS011;59408;51.032;9.410;2022-07-29T00:41:49;6.20;;;1.97;;
71572;SDS011;59408;51.032;9.410;2022-07-29T00:44:16;5.57;;;1.80;;
71572;SDS011;59408;51.032;9.410;2022-07-29T00:46:43;6.75;;;1.95;;
71572;SDS011;59408;51.032;9.410;2022-07-29T00:49:10;6.53;;;2.15;;
71572;SDS011;59408;51.032;9.410;2022-07-29T00:51:38;7.25;;;2.05;;
71572;SDS011;59408;51.032;9.410;2022-07-29T00:54:05;5.13;;;1.67;;
71572;SDS011;59408;51.032;9.410;2022-07-29T00:56:32;11.27;;;2.00;;
71572;SDS011;59408;51.032;9.410;2022-07-29T00:58:59;7.10;;;1.80;;
71572;SDS011;59408;51.032;9.410;2022-07-29T01:01:26;6.63;;;1.90;;
71572;SDS011;59408;51.032;9.410;2022-07-29T01:03:53;5.25;;;1.80;;
71572;SDS011;59408;51.032;9.410;2022-07-29T01:06:20;5.10;;;1.85;;
71572;SDS011;59408;51.032;9.410;2022-07-29T01:08:48;6.80;;;1.95;;
71572;SDS011;59408;51.032;9.410;2022-07-29T01:11:15;5.68;;;1.88;;
71572;SDS011;59408;51.032;9.410;2022-07-29T01:13:43;6.30;;;1.60;;
71572;SDS011;59408;51.032;9.410;2022-07-29T01:16:13;11.63;;;2.33;;
71572;SDS011;59408;51.032;9.410;2022-07-29T01:18:46;6.07;;;2.03;;
71572;SDS011;59408;51.032;9.410;2022-07-29T01:21:26;4.65;;;1.70;;
71572;SDS011;59408;51.032;9.410;2022-07-29T01:24:23;5.57;;;1.90;;
71572;SDS011;59408;51.032;9.410;2022-07-29T01:27:18;6.00;;;2.15;;
71572;SDS011;59408;51.032;9.410;2022-07-29T01:30:01;6.60;;;1.90;;
71572;SDS011;59408;51.032;9.410;2022-07-29T01:32:31;5.85;;;1.90;;
71572;SDS011;59408;51.032;9.410;2022-07-29T01:35:02;5.07;;;1.73;;
71572;SDS011;59408;51.032;9.410;2022-07-29T01:37:33;8.57;;;1.85;;
71572;SDS011;59408;51.032;9.410;2022-07-29T01:40:10;4.90;;;1.60;;
71572;SDS011;59408;51.032;9.410;2022-07-29T01:42:48;7.93;;;1.97;;
71572;SDS011;59408;51.032;9.410;2022-07-29T01:45:20;5.22;;;1.75;;
71572;SDS011;59408;51.032;9.410;2022-07-29T01:47:52;5.55;;;1.63;;
71572;SDS011;59408;51.032;9.410;2022-07-29T01:50:26;6.07;;;1.70;;
71572;SDS011;59408;51.032;9.410;2022-07-29T01:52:58;5.68;;;1.80;;
71572;SDS011;59408;51.032;9.410;2022-07-29T01:55:27;5.07;;;1.70;;
71572;SDS011;59408;51.032;9.410;2022-07-29T01:57:57;4.90;;;1.67;;
71572;SDS011;59408;51.032;9.410;2022-07-29T02:00:27;6.03;;;2.00;;
71572;SDS011;59408;51.032;9.410;2022-07-29T02:02:55;5.27;;;1.60;;
71572;SDS011;59408;51.032;9.410;2022-07-29T02:05:24;5.70;;;1.65;;
71572;SDS011;59408;51.032;9.410;2022-07-29T02:07:53;7.07;;;1.50;;
71572;SDS011;59408;51.032;9.410;2022-07-29T02:10:22;6.03;;;1.55;;
71572;SDS011;59408;51.032;9.410;2022-07-29T02:12:52;5.80;;;1.58;;
71572;SDS011;59408;51.032;9.410;2022-07-29T02:15:22;7.55;;;1.60;;
71572;SDS011;59408;51.032;9.410;2022-07-29T02:17:51;5.57;;;1.80;;
71572;SDS011;59408;51.032;9.410;2022-07-29T02:20:22;5.10;;;1.37;;
71572;SDS011;59408;51.032;9.410;2022-07-29T02:22:52;6.10;;;1.95;;
71572;SDS011;59408;51.032;9.410;2022-07-29T02:25:21;8.63;;;1.75;;
71572;SDS011;59408;51.032;9.410;2022-07-29T02:27:50;6.15;;;1.83;;
71572;SDS011;59408;51.032;9.410;2022-07-29T02:30:17;5.72;;;1.70;;
71572;SDS011;59408;51.032;9.410;2022-07-29T02:32:45;7.75;;;1.70;;
71572;SDS011;59408;51.032;9.410;2022-07-29T02:35:15;5.23;;;1.70;;
71572;SDS011;59408;51.032;9.410;2022-07-29T02:37:43;6.43;;;1.70;;
71572;SDS011;59408;51.032;9.410;2022-07-29T02:40:11;4.53;;;1.40;;
71572;SDS011;59408;51.032;9.410;2022-07-29T02:42:41;5.30;;;1.50;;
71572;SDS011;59408;51.032;9.410;2022-07-29T02:45:09;5.68;;;1.40;;
71572;SDS011;59408;51.032;9.410;2022-07-29T02:47:36;8.38;;;1.67;;
71572;SDS011;59408;51.032;9.410;2022-07-29T02:50:09;5.68;;;1.83;;
71572;SDS011;59408;51.032;9.410;2022-07-29T02:52:41;5.40;;;1.70;;
71572;SDS011;59408;51.032;9.410;2022-07-29T02:55:10;5.27;;;1.50;;
71572;SDS011;59408;51.032;9.410;2022-07-29T02:57:43;8.05;;;1.60;;
71572;SDS011;59408;51.032;9.410;2022-07-29T03:00:20;5.15;;;1.77;;
71572;SDS011;59408;51.032;9.410;2022-07-29T03:02:49;4.57;;;1.50;;
71572;SDS011;59408;51.032;9.410;2022-07-29T03:05:19;6.18;;;1.83;;
71572;SDS011;59408;51.032;9.410;2022-07-29T03:07:49;4.75;;;1.60;;
71572;SDS011;59408;51.032;9.410;2022-07-29T03:10:19;6.30;;;1.70;;
71572;SDS011;59408;51.032;9.410;2022-07-29T03:12:47;6.50;;;1.67;;
71572;SDS011;59408;51.032;9.410;2022-07-29T03:15:14;5.72;;;1.80;;
71572;SDS011;59408;51.032;9.410;2022-07-29T03:17:41;4.95;;;1.70;;
71572;SDS011;59408;51.032;9.410;2022-07-29T03:20:09;7.13;;;1.80;;
71572;SDS011;59408;51.032;9.410;2022-07-29T03:22:38;7.40;;;1.83;;
71572;SDS011;59408;51.032;9.410;2022-07-29T03:25:08;5.88;;;1.63;;
71572;SDS011;59408;51.032;9.410;2022-07-29T03:27:36;7.82;;;2.05;;
71572;SDS011;59408;51.032;9.410;2022-07-29T03:30:03;5.57;;;1.63;;
71572;SDS011;59408;51.032;9.410;2022-07-29T03:32:34;8.20;;;1.83;;
71572;SDS011;59408;51.032;9.410;2022-07-29T03:35:01;5.32;;;1.52;;
71572;SDS011;59408;51.032;9.410;2022-07-29T03:37:27;7.18;;;1.85;;
71572;SDS011;59408;51.032;9.410;2022-07-29T03:39:54;4.63;;;1.70;;
71572;SDS011;59408;51.032;9.410;2022-07-29T03:42:24;5.82;;;1.50;;
71572;SDS011;59408;51.032;9.410;2022-07-29T03:44:59;5.78;;;1.70;;
71572;SDS011;59408;51.032;9.410;2022-07-29T03:47:29;6.40;;;1.70;;
71572;SDS011;59408;51.032;9.410;2022-07-29T03:50:15;5.37;;;1.50;;
71572;SDS011;59408;51.032;9.410;2022-07-29T03:52:43;7.40;;;2.10;;
71572;SDS011;59408;51.032;9.410;2022-07-29T03:55:10;4.30;;;1.50;;
71572;SDS011;59408;51.032;9.410;2022-07-29T03:57:39;6.43;;;1.60;;
71572;SDS011;59408;51.032;9.410;2022-07-29T04:00:07;5.85;;;1.95;;
71572;SDS011;59408;51.032;9.410;2022-07-29T04:02:34;7.05;;;1.50;;
71572;SDS011;59408;51.032;9.410;2022-07-29T04:05:02;7.85;;;1.85;;
71572;SDS011;59408;51.032;9.410;2022-07-29T04:07:30;7.65;;;1.77;;
71572;SDS011;59408;51.032;9.410;2022-07-29T04:09:56;7.10;;;1.60;;
71572;SDS011;59408;51.032;9.410;2022-07-29T04:12:24;6.73;;;1.77;;
71572;SDS011;59408;51.032;9.410;2022-07-29T04:14:52;4.90;;;1.55;;
71572;SDS011;59408;51.032;9.410;2022-07-29T04:17:18;6.72;;;1.80;;
71572;SDS011;59408;51.032;9.410;2022-07-29T04:19:45;4.82;;;1.85;;
71572;SDS011;59408;51.032;9.410;2022-07-29T04:22:12;6.78;;;1.88;;
71572;SDS011;59408;51.032;9.410;2022-07-29T04:24:38;4.95;;;1.58;;
71572;SDS011;59408;51.032;9.410;2022-07-29T04:27:09;5.55;;;1.80;;
71572;SDS011;59408;51.032;9.410;2022-07-29T04:29:36;6.53;;;1.90;;
71572;SDS011;59408;51.032;9.410;2022-07-29T04:32:23;5.40;;;1.70;;
71572;SDS011;59408;51.032;9.410;2022-07-29T04:34:50;5.83;;;2.00;;
71572;SDS011;59408;51.032;9.410;2022-07-29T04:37:17;5.78;;;1.60;;
71572;SDS011;59408;51.032;9.410;2022-07-29T04:39:43;6.35;;;1.85;;
71572;SDS011;59408;51.032;9.410;2022-07-29T04:42:10;8.57;;;1.80;;
71572;SDS011;59408;51.032;9.410;2022-07-29T04:44:38;5.22;;;1.90;;
71572;SDS011;59408;51.032;9.410;2022-07-29T04:47:08;6.20;;;1.50;;
71572;SDS011;59408;51.032;9.410;2022-07-29T04:49:38;7.07;;;2.03;;
71572;SDS011;59408;51.032;9.410;2022-07-29T04:52:05;6.10;;;1.83;;
71572;SDS011;59408;51.032;9.410;2022-07-29T04:54:31;6.20;;;1.63;;
71572;SDS011;59408;51.032;9.410;2022-07-29T04:56:58;5.63;;;1.60;;
71572;SDS011;59408;51.032;9.410;2022-07-29T04:59:25;6.95;;;1.63;;
71572;SDS011;59408;51.032;9.410;2022-07-29T05:01:51;6.25;;;1.73;;
71572;SDS011;59408;51.032;9.410;2022-07-29T05:04:18;5.07;;;1.80;;
71572;SDS011;59408;51.032;9.410;2022-07-29T05:06:47;5.53;;;1.80;;
71572;SDS011;59408;51.032;9.410;2022-07-29T05:09:14;9.50;;;1.70;;
71572;SDS011;59408;51.032;9.410;2022-07-29T05:11:40;5.32;;;1.70;;
71572;SDS011;59408;51.032;9.410;2022-07-29T05:14:07;5.43;;;1.90;;
71572;SDS011;59408;51.032;9.410;2022-07-29T05:16:33;5.60;;;1.43;;
71572;SDS011;59408;51.032;9.410;2022-07-29T05:19:00;5.43;;;1.70;;
71572;SDS011;59408;51.032;9.410;2022-07-29T05:21:26;6.38;;;1.52;;
71572;SDS011;59408;51.032;9.410;2022-07-29T05:23:54;7.93;;;2.10;;
71572;SDS011;59408;51.032;9.410;2022-07-29T05:26:21;4.65;;;1.60;;
71572;SDS011;59408;51.032;9.410;2022-07-29T05:28:48;5.15;;;1.70;;
71572;SDS011;59408;51.032;9.410;2022-07-29T05:31:14;7.53;;;1.73;;
71572;SDS011;59408;51.032;9.410;2022-07-29T05:33:41;9.18;;;1.90;;
71572;SDS011;59408;51.032;9.410;2022-07-29T05:36:08;5.83;;;1.47;;
71572;SDS011;59408;51.032;9.410;2022-07-29T05:38:35;6.50;;;1.60;;
71572;SDS011;59408;51.032;9.410;2022-07-29T05:41:03;5.80;;;1.48;;
71572;SDS011;59408;51.032;9.410;2022-07-29T05:43:30;3.85;;;1.30;;
71572;SDS011;59408;51.032;9.410;2022-07-29T05:45:57;5.47;;;1.60;;
71572;SDS011;59408;51.032;9.410;2022-07-29T05:48:24;8.18;;;1.55;;
71572;SDS011;59408;51.032;9.410;2022-07-29T05:50:51;5.13;;;1.50;;
71572;SDS011;59408;51.032;9.410;2022-07-29T05:53:17;7.35;;;1.70;;
71572;SDS011;59408;51.032;9.410;2022-07-29T05:55:46;4.90;;;1.50;;
71572;SDS011;59408;51.032;9.410;2022-07-29T05:58:14;6.82;;;1.80;;
71572;SDS011;59408;51.032;9.410;2022-07-29T06:00:41;8.02;;;2.00;;
71572;SDS011;59408;51.032;9.410;2022-07-29T06:03:07;6.22;;;1.88;;
71572;SDS011;59408;51.032;9.410;2022-07-29T06:05:34;7.10;;;1.70;;
71572;SDS011;59408;51.032;9.410;2022-07-29T06:08:00;8.75;;;2.13;;
71572;SDS011;59408;51.032;9.410;2022-07-29T06:10:27;6.47;;;1.70;;
71572;SDS011;59408;51.032;9.410;2022-07-29T06:12:54;8.17;;;1.80;;
71572;SDS011;59408;51.032;9.410;2022-07-29T06:15:22;7.00;;;2.10;;
71572;SDS011;59408;51.032;9.410;2022-07-29T06:17:48;8.02;;;2.15;;
71572;SDS011;59408;51.032;9.410;2022-07-29T06:20:26;6.60;;;2.05;;
71572;SDS011;59408;51.032;9.410;2022-07-29T06:22:52;7.18;;;2.20;;
71572;SDS011;59408;51.032;9.410;2022-07-29T06:25:19;7.88;;;2.30;;
71572;SDS011;59408;51.032;9.410;2022-07-29T06:27:46;6.60;;;1.90;;
71572;SDS011;59408;51.032;9.410;2022-07-29T06:30:12;6.60;;;2.00;;
71572;SDS011;59408;51.032;9.410;2022-07-29T06:32:41;5.70;;;2.27;;
71572;SDS011;59408;51.032;9.410;2022-07-29T06:35:08;6.03;;;1.98;;
71572;SDS011;59408;51.032;9.410;2022-07-29T06:37:55;5.38;;;1.77;;
71572;SDS011;59408;51.032;9.410;2022-07-29T06:40:25;4.65;;;1.70;;
71572;SDS011;59408;51.032;9.410;2022-07-29T06:42:51;6.35;;;2.05;;
71572;SDS011;59408;51.032;9.410;2022-07-29T06:45:18;7.80;;;2.28;;
71572;SDS011;59408;51.032;9.410;2022-07-29T06:47:46;5.80;;;2.42;;
71572;SDS011;59408;51.032;9.410;2022-07-29T06:50:12;8.23;;;2.40;;
71572;SDS011;59408;51.032;9.410;2022-07-29T06:52:39;8.02;;;2.22;;
71572;SDS011;59408;51.032;9.410;2022-07-29T06:55:06;6.93;;;2.10;;
71572;SDS011;59408;51.032;9.410;2022-07-29T06:57:34;7.15;;;2.30;;
71572;SDS011;59408;51.032;9.410;2022-07-29T07:00:00;6.00;;;2.30;;
71572;SDS011;59408;51.032;9.410;2022-07-29T07:02:27;7.28;;;2.72;;
71572;SDS011;59408;51.032;9.410;2022-07-29T07:04:55;6.53;;;2.70;;
71572;SDS011;59408;51.032;9.410;2022-07-29T07:07:22;7.97;;;2.90;;
71572;SDS011;59408;51.032;9.410;2022-07-29T07:09:48;8.25;;;3.08;;
71572;SDS011;59408;51.032;9.410;2022-07-29T07:12:15;10.50;;;3.55;;
71572;SDS011;59408;51.032;9.410;2022-07-29T07:14:42;8.25;;;2.72;;
71572;SDS011;59408;51.032;9.410;2022-07-29T07:17:08;7.15;;;2.47;;
71572;SDS011;59408;51.032;9.410;2022-07-29T07:19:35;6.95;;;2.65;;
71572;SDS011;59408;51.032;9.410;2022-07-29T07:22:03;7.30;;;2.53;;
71572;SDS011;59408;51.032;9.410;2022-07-29T07:24:30;6.30;;;2.17;;
71572;SDS011;59408;51.032;9.410;2022-07-29T07:26:56;5.75;;;2.45;;
71572;SDS011;59408;51.032;9.410;2022-07-29T07:29:23;8.98;;;3.35;;
71572;SDS011;59408;51.032;9.410;2022-07-29T07:31:49;10.30;;;2.95;;
71572;SDS011;59408;51.032;9.410;2022-07-29T07:34:16;7.25;;;2.40;;
71572;SDS011;59408;51.032;9.410;2022-07-29T07:36:54;6.63;;;2.90;;
71572;SDS011;59408;51.032;9.410;2022-07-29T07:39:24;6.83;;;3.37;;
71572;SDS011;59408;51.032;9.410;2022-07-29T07:41:50;5.80;;;2.70;;
71572;SDS011;59408;51.032;9.410;2022-07-29T07:44:17;8.82;;;3.00;;
71572;SDS011;59408;51.032;9.410;2022-07-29T07:46:44;6.78;;;2.80;;
71572;SDS011;59408;51.032;9.410;2022-07-29T07:49:11;7.97;;;3.00;;
71572;SDS011;59408;51.032;9.410;2022-07-29T07:51:37;8.30;;;2.60;;
71572;SDS011;59408;51.032;9.410;2022-07-29T07:54:04;5.90;;;2.60;;
71572;SDS011;59408;51.032;9.410;2022-07-29T07:56:33;7.57;;;2.92;;
71572;SDS011;59408;51.032;9.410;2022-07-29T07:59:00;5.77;;;2.70;;
71572;SDS011;59408;51.032;9.410;2022-07-29T08:01:27;7.00;;;2.80;;
71572;SDS011;59408;51.032;9.410;2022-07-29T08:03:54;6.32;;;2.58;;
71572;SDS011;59408;51.032;9.410;2022-07-29T08:06:20;6.13;;;2.55;;
71572;SDS011;59408;51.032;9.410;2022-07-29T08:08:47;6.25;;;2.67;;
71572;SDS011;59408;51.032;9.410;2022-07-29T08:11:13;7.18;;;2.60;;
71572;SDS011;59408;51.032;9.410;2022-07-29T08:13:41;8.68;;;3.10;;
71572;SDS011;59408;51.032;9.410;2022-07-29T08:16:08;7.78;;;2.80;;
71572;SDS011;59408;51.032;9.410;2022-07-29T08:18:34;7.43;;;2.80;;
71572;SDS011;59408;51.032;9.410;2022-07-29T08:21:01;7.40;;;2.50;;
71572;SDS011;59408;51.032;9.410;2022-07-29T08:23:28;7.43;;;2.63;;
71572;SDS011;59408;51.032;9.410;2022-07-29T08:26:14;5.75;;;2.60;;
71572;SDS011;59408;51.032;9.410;2022-07-29T08:28:43;6.22;;;2.30;;
71572;SDS011;59408;51.032;9.410;2022-07-29T08:31:11;5.97;;;2.40;;
71572;SDS011;59408;51.032;9.410;2022-07-29T08:33:38;6.63;;;2.20;;
71572;SDS011;59408;51.032;9.410;2022-07-29T08:36:05;8.10;;;2.47;;
71572;SDS011;59408;51.032;9.410;2022-07-29T08:38:32;6.83;;;2.30;;
71572;SDS011;59408;51.032;9.410;2022-07-29T08:41:00;7.47;;;2.33;;
71572;SDS011;59408;51.032;9.410;2022-07-29T08:43:27;5.88;;;2.45;;
71572;SDS011;59408;51.032;9.410;2022-07-29T08:45:56;6.85;;;2.67;;
71572;SDS011;59408;51.032;9.410;2022-07-29T08:48:23;6.20;;;2.42;;
71572;SDS011;59408;51.032;9.410;2022-07-29T08:50:52;6.60;;;2.10;;
71572;SDS011;59408;51.032;9.410;2022-07-29T08:53:21;8.27;;;2.53;;
71572;SDS011;59408;51.032;9.410;2022-07-29T08:55:51;8.27;;;2.70;;
71572;SDS011;59408;51.032;9.410;2022-07-29T08:58:19;7.07;;;2.35;;
71572;SDS011;59408;51.032;9.410;2022-07-29T09:00:49;7.40;;;2.28;;
71572;SDS011;59408;51.032;9.410;2022-07-29T09:03:19;5.40;;;2.50;;
71572;SDS011;59408;51.032;9.410;2022-07-29T09:05:48;5.55;;;2.45;;
71572;SDS011;59408;51.032;9.410;2022-07-29T09:08:16;5.90;;;2.03;;
71572;SDS011;59408;51.032;9.410;2022-07-29T09:10:43;5.78;;;2.30;;
71572;SDS011;59408;51.032;9.410;2022-07-29T09:13:10;6.15;;;2.60;;
71572;SDS011;59408;51.032;9.410;2022-07-29T09:18:34;6.97;;;2.42;;
71572;SDS011;59408;51.032;9.410;2022-07-29T09:21:02;7.63;;;2.70;;
71572;SDS011;59408;51.032;9.410;2022-07-29T09:23:29;6.67;;;2.50;;
71572;SDS011;59408;51.032;9.410;2022-07-29T09:25:56;6.32;;;2.38;;
71572;SDS011;59408;51.032;9.410;2022-07-29T09:28:31;7.15;;;2.50;;
71572;SDS011;59408;51.032;9.410;2022-07-29T09:30:58;6.50;;;2.50;;
71572;SDS011;59408;51.032;9.410;2022-07-29T09:33:31;5.82;;;2.28;;
71572;SDS011;59408;51.032;9.410;2022-07-29T09:36:00;10.07;;;2.87;;
71572;SDS011;59408;51.032;9.410;2022-07-29T09:38:31;6.43;;;2.60;;
71572;SDS011;59408;51.032;9.410;2022-07-29T09:40:58;5.93;;;2.65;;
71572;SDS011;59408;51.032;9.410;2022-07-29T09:43:31;5.88;;;2.67;;
71572;SDS011;59408;51.032;9.410;2022-07-29T09:46:06;7.40;;;2.38;;
71572;SDS011;59408;51.032;9.410;2022-07-29T09:48:37;8.45;;;2.97;;
71572;SDS011;59408;51.032;9.410;2022-07-29T09:51:05;5.83;;;2.60;;
71572;SDS011;59408;51.032;9.410;2022-07-29T09:53:47;6.70;;;2.57;;
71572;SDS011;59408;51.032;9.410;2022-07-29T09:56:14;6.78;;;2.50;;
71572;SDS011;59408;51.032;9.410;2022-07-29T09:58:40;6.57;;;2.70;;
71572;SDS011;59408;51.032;9.410;2022-07-29T10:01:07;5.80;;;2.55;;
71572;SDS011;59408;51.032;9.410;2022-07-29T10:03:36;6.47;;;2.65;;
71572;SDS011;59408;51.032;9.410;2022-07-29T10:06:18;7.60;;;2.60;;
71572;SDS011;59408;51.032;9.410;2022-07-29T10:08:44;5.60;;;2.35;;
71572;SDS011;59408;51.032;9.410;2022-07-29T10:11:13;7.10;;;2.72;;
71572;SDS011;59408;51.032;9.410;2022-07-29T10:13:41;8.77;;;2.80;;
71572;SDS011;59408;51.032;9.410;2022-07-29T10:16:10;7.75;;;2.67;;
71572;SDS011;59408;51.032;9.410;2022-07-29T10:18:39;6.10;;;2.40;;
71572;SDS011;59408;51.032;9.410;2022-07-29T10:21:07;7.53;;;2.40;;
71572;SDS011;59408;51.032;9.410;2022-07-29T10:23:35;7.03;;;2.90;;
71572;SDS011;59408;51.032;9.410;2022-07-29T10:26:12;6.55;;;2.90;;
71572;SDS011;59408;51.032;9.410;2022-07-29T10:28:39;7.93;;;3.03;;
71572;SDS011;59408;51.032;9.410;2022-07-29T10:31:06;6.68;;;2.75;;
71572;SDS011;59408;51.032;9.410;2022-07-29T10:33:43;6.97;;;2.90;;
71572;SDS011;59408;51.032;9.410;2022-07-29T10:36:24;8.32;;;2.97;;
71572;SDS011;59408;51.032;9.410;2022-07-29T10:39:08;6.38;;;2.90;;
71572;SDS011;59408;51.032;9.410;2022-07-29T10:41:52;6.03;;;2.80;;
71572;SDS011;59408;51.032;9.410;2022-07-29T10:44:28;6.45;;;2.60;;
71572;SDS011;59408;51.032;9.410;2022-07-29T10:46:57;8.17;;;3.13;;
71572;SDS011;59408;51.032;9.410;2022-07-29T10:49:24;6.25;;;3.00;;
71572;SDS011;59408;51.032;9.410;2022-07-29T10:51:56;6.43;;;2.92;;
71572;SDS011;59408;51.032;9.410;2022-07-29T10:57:19;7.30;;;3.05;;
71572;SDS011;59408;51.032;9.410;2022-07-29T11:00:26;5.97;;;2.80;;
71572;SDS011;59408;51.032;9.410;2022-07-29T11:02:56;5.82;;;2.85;;
71572;SDS011;59408;51.032;9.410;2022-07-29T11:05:23;6.50;;;2.50;;
71572;SDS011;59408;51.032;9.410;2022-07-29T11:08:16;5.70;;;2.80;;
71572;SDS011;59408;51.032;9.410;2022-07-29T11:10:53;8.38;;;2.90;;
71572;SDS011;59408;51.032;9.410;2022-07-29T11:13:55;7.63;;;2.97;;
71572;SDS011;59408;51.032;9.410;2022-07-29T11:16:22;5.30;;;2.90;;
71572;SDS011;59408;51.032;9.410;2022-07-29T11:21:55;7.95;;;3.30;;
71572;SDS011;59408;51.032;9.410;2022-07-29T11:24:42;7.82;;;3.10;;
71572;SDS011;59408;51.032;9.410;2022-07-29T11:27:17;6.37;;;3.20;;
71572;SDS011;59408;51.032;9.410;2022-07-29T11:29:49;6.20;;;3.45;;
71572;SDS011;59408;51.032;9.410;2022-07-29T11:32:19;5.78;;;3.00;;
71572;SDS011;59408;51.032;9.410;2022-07-29T11:34:49;7.65;;;3.40;;
71572;SDS011;59408;51.032;9.410;2022-07-29T11:37:43;5.10;;;2.80;;
71572;SDS011;59408;51.032;9.410;2022-07-29T11:40:20;7.50;;;3.10;;
71572;SDS011;59408;51.032;9.410;2022-07-29T11:42:49;7.75;;;3.30;;
71572;SDS011;59408;51.032;9.410;2022-07-29T11:45:24;6.75;;;3.47;;
71572;SDS011;59408;51.032;9.410;2022-07-29T11:48:19;6.35;;;3.30;;
71572;SDS011;59408;51.032;9.410;2022-07-29T11:50:55;6.15;;;3.25;;
71572;SDS011;59408;51.032;9.410;2022-07-29T11:53:23;5.87;;;3.50;;
71572;SDS011;59408;51.032;9.410;2022-07-29T11:55:54;7.95;;;3.22;;
71572;SDS011;59408;51.032;9.410;2022-07-29T11:58:25;6.55;;;3.55;;
71572;SDS011;59408;51.032;9.410;2022-07-29T12:00:52;7.20;;;3.13;;
71572;SDS011;59408;51.032;9.410;2022-07-29T12:03:23;5.88;;;3.42;;
71572;SDS011;59408;51.032;9.410;2022-07-29T12:06:01;8.13;;;3.43;;
71572;SDS011;59408;51.032;9.410;2022-07-29T12:08:29;6.68;;;3.22;;
71572;SDS011;59408;51.032;9.410;2022-07-29T12:10:56;10.35;;;3.38;;
71572;SDS011;59408;51.032;9.410;2022-07-29T12:13:22;7.28;;;3.05;;
71572;SDS011;59408;51.032;9.410;2022-07-29T12:16:04;7.90;;;3.75;;
71572;SDS011;59408;51.032;9.410;2022-07-29T12:18:31;7.90;;;3.40;;
71572;SDS011;59408;51.032;9.410;2022-07-29T12:20:58;8.32;;;3.58;;
71572;SDS011;59408;51.032;9.410;2022-07-29T12:23:28;5.85;;;3.20;;
71572;SDS011;59408;51.032;9.410;2022-07-29T12:26:00;7.88;;;3.50;;
71572;SDS011;59408;51.032;9.410;2022-07-29T12:28:36;8.65;;;3.75;;
71572;SDS011;59408;51.032;9.410;2022-07-29T12:31:05;7.23;;;3.30;;
71572;SDS011;59408;51.032;9.410;2022-07-29T12:33:33;7.13;;;3.83;;
71572;SDS011;59408;51.032;9.410;2022-07-29T12:36:00;6.80;;;3.75;;
71572;SDS011;59408;51.032;9.410;2022-07-29T12:38:33;5.78;;;3.30;;
71572;SDS011;59408;51.032;9.410;2022-07-29T12:41:00;8.13;;;3.38;;
71572;SDS011;59408;51.032;9.410;2022-07-29T12:43:29;6.97;;;3.40;;
71572;SDS011;59408;51.032;9.410;2022-07-29T12:45:56;7.50;;;3.22;;
71572;SDS011;59408;51.032;9.410;2022-07-29T12:48:34;7.38;;;3.38;;
71572;SDS011;59408;51.032;9.410;2022-07-29T12:51:02;6.03;;;3.30;;
71572;SDS011;59408;51.032;9.410;2022-07-29T12:53:30;7.15;;;3.30;;
71572;SDS011;59408;51.032;9.410;2022-07-29T12:55:57;6.83;;;3.37;;
71572;SDS011;59408;51.032;9.410;2022-07-29T12:58:26;6.57;;;3.47;;
71572;SDS011;59408;51.032;9.410;2022-07-29T13:01:00;7.57;;;3.45;;
71572;SDS011;59408;51.032;9.410;2022-07-29T13:03:41;6.22;;;3.45;;
71572;SDS011;59408;51.032;9.410;2022-07-29T13:06:30;8.07;;;3.50;;
71572;SDS011;59408;51.032;9.410;2022-07-29T13:09:10;9.13;;;3.47;;
71572;SDS011;59408;51.032;9.410;2022-07-29T13:11:38;6.90;;;3.78;;
71572;SDS011;59408;51.032;9.410;2022-07-29T13:14:13;8.00;;;3.65;;
71572;SDS011;59408;51.032;9.410;2022-07-29T13:17:02;8.10;;;3.50;;
71572;SDS011;59408;51.032;9.410;2022-07-29T13:19:36;6.00;;;3.70;;
71572;SDS011;59408;51.032;9.410;2022-07-29T13:22:04;7.97;;;3.70;;
71572;SDS011;59408;51.032;9.410;2022-07-29T13:24:31;8.88;;;4.05;;
71572;SDS011;59408;51.032;9.410;2022-07-29T13:26:57;6.88;;;4.00;;
71572;SDS011;59408;51.032;9.410;2022-07-29T13:29:24;5.43;;;3.45;;
71572;SDS011;59408;51.032;9.410;2022-07-29T13:31:56;5.85;;;3.78;;
71572;SDS011;59408;51.032;9.410;2022-07-29T13:34:23;7.23;;;3.63;;
71572;SDS011;59408;51.032;9.410;2022-07-29T13:36:51;6.68;;;4.15;;
71572;SDS011;59408;51.032;9.410;2022-07-29T13:39:17;6.75;;;3.40;;
71572;SDS011;59408;51.032;9.410;2022-07-29T13:41:44;6.25;;;3.88;;
71572;SDS011;59408;51.032;9.410;2022-07-29T13:44:11;6.45;;;3.72;;
71572;SDS011;59408;51.032;9.410;2022-07-29T13:46:37;6.37;;;3.63;;
71572;SDS011;59408;51.032;9.410;2022-07-29T13:49:05;6.13;;;3.88;;
71572;SDS011;59408;51.032;9.410;2022-07-29T13:51:32;5.97;;;3.50;;
71572;SDS011;59408;51.032;9.410;2022-07-29T13:54:00;8.30;;;3.80;;
71572;SDS011;59408;51.032;9.410;2022-07-29T13:56:27;6.75;;;4.05;;
71572;SDS011;59408;51.032;9.410;2022-07-29T13:58:54;7.60;;;3.73;;
71572;SDS011;59408;51.032;9.410;2022-07-29T14:01:21;7.30;;;3.78;;
71572;SDS011;59408;51.032;9.410;2022-07-29T14:03:47;7.10;;;3.80;;
71572;SDS011;59408;51.032;9.410;2022-07-29T14:06:14;7.25;;;4.10;;
71572;SDS011;59408;51.032;9.410;2022-07-29T14:08:43;8.52;;;3.75;;
71572;SDS011;59408;51.032;9.410;2022-07-29T14:11:11;7.13;;;4.30;;
71572;SDS011;59408;51.032;9.410;2022-07-29T14:13:37;8.85;;;3.88;;
71572;SDS011;59408;51.032;9.410;2022-07-29T14:16:05;6.30;;;3.70;;
71572;SDS011;59408;51.032;9.410;2022-07-29T14:18:31;6.57;;;3.78;;
71572;SDS011;59408;51.032;9.410;2022-07-29T14:20:58;7.30;;;4.00;;
71572;SDS011;59408;51.032;9.410;2022-07-29T14:23:25;7.00;;;3.80;;
71572;SDS011;59408;51.032;9.410;2022-07-29T14:25:51;6.65;;;4.00;;
71572;SDS011;59408;51.032;9.410;2022-07-29T14:28:20;6.72;;;4.07;;
71572;SDS011;59408;51.032;9.410;2022-07-29T14:30:46;7.72;;;4.20;;
71572;SDS011;59408;51.032;9.410;2022-07-29T14:33:13;6.15;;;4.00;;
71572;SDS011;59408;51.032;9.410;2022-07-29T14:35:39;7.97;;;4.37;;
71572;SDS011;59408;51.032;9.410;2022-07-29T14:38:06;7.25;;;4.10;;
71572;SDS011;59408;51.032;9.410;2022-07-29T14:40:33;6.00;;;3.83;;
71572;SDS011;59408;51.032;9.410;2022-07-29T14:42:59;6.28;;;3.60;;
71572;SDS011;59408;51.032;9.410;2022-07-29T14:45:27;7.68;;;3.55;;
71572;SDS011;59408;51.032;9.410;2022-07-29T14:47:55;8.07;;;4.00;;
71572;SDS011;59408;51.032;9.410;2022-07-29T14:50:23;8.18;;;3.80;;
71572;SDS011;59408;51.032;9.410;2022-07-29T14:52:57;7.97;;;4.13;;
71572;SDS011;59408;51.032;9.410;2022-07-29T14:55:24;7.75;;;4.07;;
71572;SDS011;59408;51.032;9.410;2022-07-29T14:57:50;8.50;;;3.70;;
71572;SDS011;59408;51.032;9.410;2022-07-29T15:00:24;6.00;;;4.13;;
71572;SDS011;59408;51.032;9.410;2022-07-29T15:02:52;6.88;;;4.28;;
71572;SDS011;59408;51.032;9.410;2022-07-29T15:05:28;7.63;;;3.92;;
71572;SDS011;59408;51.032;9.410;2022-07-29T15:07:55;7.00;;;4.00;;
71572;SDS011;59408;51.032;9.410;2022-07-29T15:10:23;5.72;;;3.70;;
71572;SDS011;59408;51.032;9.410;2022-07-29T15:12:52;6.67;;;3.70;;